createdAt,value
2023-02-05T00:00:32.000Z,5.06
2023-02-05T00:01:32.000Z,5.06
2023-02-05T00:02:33.000Z,5.06
2023-02-05T00:03:34.000Z,5.00
2023-02-05T00:04:33.000Z,5.00
2023-02-05T00:05:32.000Z,5.00
2023-02-05T00:06:32.000Z,5.00
2023-02-05T00:07:33.000Z,5.00
2023-02-05T00:08:33.000Z,5.00
2023-02-05T00:09:33.000Z,4.94
2023-02-05T00:10:32.000Z,4.94
2023-02-05T00:11:32.000Z,4.94
2023-02-05T00:12:33.000Z,4.88
2023-02-05T00:13:37.000Z,4.94
2023-02-05T00:14:32.000Z,4.94
2023-02-05T00:15:37.000Z,4.94
2023-02-05T00:16:34.000Z,4.94
2023-02-05T00:17:34.000Z,5.00
2023-02-05T00:18:33.000Z,5.00
2023-02-05T00:19:32.000Z,5.00
2023-02-05T00:20:32.000Z,5.00
2023-02-05T00:21:32.000Z,5.00
2023-02-05T00:22:32.000Z,5.00
2023-02-05T00:23:33.000Z,5.00
2023-02-05T00:24:32.000Z,5.00
2023-02-05T00:25:32.000Z,5.00
2023-02-05T00:26:32.000Z,5.06
2023-02-05T00:27:32.000Z,5.06
2023-02-05T00:28:33.000Z,5.06
2023-02-05T00:29:32.000Z,5.06
2023-02-05T00:30:32.000Z,5.06
2023-02-05T00:31:32.000Z,5.06
2023-02-05T00:32:32.000Z,5.06
2023-02-05T00:33:32.000Z,5.06
2023-02-05T00:34:32.000Z,5.06
2023-02-05T00:35:32.000Z,5.06
2023-02-05T00:36:32.000Z,5.12
2023-02-05T00:37:32.000Z,5.06
2023-02-05T00:38:33.000Z,5.12
2023-02-05T00:39:33.000Z,5.12
2023-02-05T00:40:33.000Z,5.12
2023-02-05T00:41:34.000Z,5.12
2023-02-05T00:42:33.000Z,5.12
2023-02-05T00:43:33.000Z,5.12
2023-02-05T00:44:33.000Z,5.12
2023-02-05T00:45:34.000Z,5.06
2023-02-05T00:46:33.000Z,5.06
2023-02-05T00:47:33.000Z,5.12
2023-02-05T00:48:33.000Z,5.06
2023-02-05T00:49:33.000Z,5.12
2023-02-05T00:50:34.000Z,5.12
2023-02-05T00:51:33.000Z,5.12
2023-02-05T00:52:33.000Z,5.06
2023-02-05T00:53:33.000Z,5.12
2023-02-05T00:54:33.000Z,5.06
2023-02-05T00:55:33.000Z,5.06
2023-02-05T00:56:33.000Z,5.12
2023-02-05T00:57:33.000Z,5.12
2023-02-05T00:58:33.000Z,5.12
2023-02-05T00:59:33.000Z,5.12
2023-02-05T01:00:33.000Z,5.12
2023-02-05T01:01:33.000Z,5.12
2023-02-05T01:02:33.000Z,5.12
2023-02-05T01:03:33.000Z,5.06
2023-02-05T01:04:33.000Z,5.12
2023-02-05T01:05:34.000Z,5.12
2023-02-05T01:06:33.000Z,5.12
2023-02-05T01:07:33.000Z,5.06
2023-02-05T01:08:33.000Z,5.12
2023-02-05T01:09:33.000Z,5.06
2023-02-05T01:10:33.000Z,5.06
2023-02-05T01:11:33.000Z,5.06
2023-02-05T01:12:33.000Z,5.06
2023-02-05T01:13:33.000Z,5.06
2023-02-05T01:14:33.000Z,5.06
2023-02-05T01:15:33.000Z,5.06
2023-02-05T01:16:33.000Z,5.06
2023-02-05T01:17:33.000Z,5.06
2023-02-05T01:18:32.000Z,5.06
2023-02-05T01:19:33.000Z,5.06
2023-02-05T01:20:36.000Z,5.00
2023-02-05T01:21:34.000Z,5.06
2023-02-05T01:22:33.000Z,5.06
2023-02-05T01:23:33.000Z,5.06
2023-02-05T01:24:33.000Z,5.06
2023-02-05T01:25:33.000Z,5.00
2023-02-05T01:26:33.000Z,5.00
2023-02-05T01:27:33.000Z,5.00
2023-02-05T01:28:33.000Z,5.00
2023-02-05T01:29:33.000Z,5.06
2023-02-05T01:30:34.000Z,5.00
2023-02-05T01:31:32.000Z,5.00
2023-02-05T01:32:33.000Z,5.00
2023-02-05T01:33:33.000Z,5.00
2023-02-05T01:34:33.000Z,5.00
2023-02-05T01:35:32.000Z,5.00
2023-02-05T01:36:32.000Z,5.00
2023-02-05T01:37:33.000Z,5.00
2023-02-05T01:38:32.000Z,5.00
2023-02-05T01:39:32.000Z,5.00
2023-02-05T01:40:32.000Z,5.06
2023-02-05T01:41:33.000Z,5.00
2023-02-05T01:42:32.000Z,5.00
2023-02-05T01:43:33.000Z,5.06
2023-02-05T01:44:32.000Z,5.00
2023-02-05T01:45:43.000Z,5.00
2023-02-05T01:46:34.000Z,5.06
2023-02-05T01:47:33.000Z,5.00
2023-02-05T01:48:44.000Z,5.00
2023-02-05T01:49:38.000Z,5.00
2023-02-05T01:50:40.000Z,5.06
2023-02-05T01:51:35.000Z,5.00
2023-02-05T01:52:33.000Z,5.00
2023-02-05T01:53:35.000Z,5.00
2023-02-05T01:54:36.000Z,5.00
2023-02-05T01:55:39.000Z,5.00
2023-02-05T01:56:40.000Z,5.00
2023-02-05T01:57:35.000Z,5.00
2023-02-05T01:58:39.000Z,4.94
2023-02-05T01:59:35.000Z,4.94
2023-02-05T02:00:33.000Z,5.00
2023-02-05T02:01:34.000Z,5.00
2023-02-05T02:02:34.000Z,4.88
2023-02-05T02:03:33.000Z,4.94
2023-02-05T02:04:39.000Z,4.94
2023-02-05T02:05:32.000Z,4.88
2023-02-05T02:06:34.000Z,4.88
2023-02-05T02:07:33.000Z,4.88
2023-02-05T02:08:33.000Z,4.88
2023-02-05T02:09:34.000Z,4.88
2023-02-05T02:10:33.000Z,4.88
2023-02-05T02:11:37.000Z,4.81
2023-02-05T02:12:36.000Z,4.88
2023-02-05T02:13:34.000Z,4.81
2023-02-05T02:14:35.000Z,4.81
2023-02-05T02:15:33.000Z,4.81
2023-02-05T02:16:36.000Z,4.81
2023-02-05T02:17:41.000Z,4.75
2023-02-05T02:18:35.000Z,4.75
2023-02-05T02:19:53.000Z,4.69
2023-02-05T02:20:38.000Z,4.69
2023-02-05T02:21:43.000Z,4.75
2023-02-05T02:22:52.000Z,4.69
2023-02-05T02:23:43.000Z,4.62
2023-02-05T02:24:47.000Z,4.69
2023-02-05T02:25:51.000Z,4.62
2023-02-05T02:26:43.000Z,4.62
2023-02-05T02:27:43.000Z,4.62
2023-02-05T02:28:49.000Z,4.56
2023-02-05T02:29:40.000Z,4.50
2023-02-05T02:30:53.000Z,4.56
2023-02-05T02:31:44.000Z,4.56
2023-02-05T02:32:39.000Z,4.50
2023-02-05T02:33:47.000Z,4.56
2023-02-05T02:34:43.000Z,4.50
2023-02-05T02:35:53.000Z,4.44
2023-02-05T02:36:40.000Z,4.44
2023-02-05T02:38:05.000Z,4.44
2023-02-05T02:38:43.000Z,4.38
2023-02-05T02:39:39.000Z,4.38
2023-02-05T02:40:43.000Z,4.31
2023-02-05T02:41:41.000Z,4.31
2023-02-05T02:42:39.000Z,4.38
2023-02-05T02:43:41.000Z,4.31
2023-02-05T02:44:40.000Z,4.31
2023-02-05T02:45:39.000Z,4.31
2023-02-05T02:46:39.000Z,4.38
2023-02-05T02:47:42.000Z,4.31
2023-02-05T02:48:35.000Z,4.31
2023-02-05T02:49:37.000Z,4.31
2023-02-05T02:50:38.000Z,4.38
2023-02-05T02:51:37.000Z,4.31
2023-02-05T02:52:37.000Z,4.38
2023-02-05T02:53:37.000Z,4.31
2023-02-05T02:54:35.000Z,4.38
2023-02-05T02:55:35.000Z,4.38
2023-02-05T02:56:37.000Z,4.38
2023-02-05T02:57:35.000Z,4.38
2023-02-05T02:58:46.000Z,4.38
2023-02-05T02:59:35.000Z,4.38
2023-02-05T03:00:34.000Z,4.38
2023-02-05T03:01:36.000Z,4.44
2023-02-05T03:02:36.000Z,4.38
2023-02-05T03:03:37.000Z,4.38
2023-02-05T03:04:37.000Z,4.38
2023-02-05T03:05:34.000Z,4.31
2023-02-05T03:06:33.000Z,4.31
2023-02-05T03:07:40.000Z,4.31
2023-02-05T03:08:43.000Z,4.31
2023-02-05T03:09:40.000Z,4.31
2023-02-05T03:10:40.000Z,4.38
2023-02-05T03:11:32.000Z,4.31
2023-02-05T03:12:32.000Z,4.38
2023-02-05T03:13:33.000Z,4.38
2023-02-05T03:14:34.000Z,4.38
2023-02-05T03:15:32.000Z,4.38
2023-02-05T03:16:32.000Z,4.38
2023-02-05T03:17:33.000Z,4.38
2023-02-05T03:18:33.000Z,4.38
2023-02-05T03:19:32.000Z,4.44
2023-02-05T03:20:42.000Z,4.38
2023-02-05T03:21:39.000Z,4.44
2023-02-05T03:22:32.000Z,4.44
2023-02-05T03:23:32.000Z,4.44
2023-02-05T03:24:32.000Z,4.50
2023-02-05T03:25:32.000Z,4.44
2023-02-05T03:26:35.000Z,4.44
2023-02-05T03:27:33.000Z,4.50
2023-02-05T03:28:32.000Z,4.50
2023-02-05T03:29:37.000Z,4.50
2023-02-05T03:30:47.000Z,4.50
2023-02-05T03:31:42.000Z,4.44
2023-02-05T03:32:42.000Z,4.50
2023-02-05T03:33:54.000Z,4.50
2023-02-05T03:34:42.000Z,4.50
2023-02-05T03:35:42.000Z,4.50
2023-02-05T03:36:53.000Z,4.44
2023-02-05T03:37:42.000Z,4.44
2023-02-05T03:39:09.000Z,4.38
2023-02-05T03:39:51.000Z,4.44
2023-02-05T03:40:44.000Z,4.44
2023-02-05T03:42:01.000Z,4.38
2023-02-05T03:42:42.000Z,4.38
2023-02-05T03:43:45.000Z,4.38
2023-02-05T03:44:48.000Z,4.31
2023-02-05T03:45:42.000Z,4.38
2023-02-05T03:46:42.000Z,4.31
2023-02-05T03:47:44.000Z,4.38
2023-02-05T03:48:46.000Z,4.31
2023-02-05T03:49:50.000Z,4.31
2023-02-05T03:50:52.000Z,4.31
2023-02-05T03:51:42.000Z,4.31
2023-02-05T03:52:39.000Z,4.31
2023-02-05T03:53:42.000Z,4.31
2023-02-05T03:54:41.000Z,4.31
2023-02-05T03:55:40.000Z,4.25
2023-02-05T03:56:43.000Z,4.31
2023-02-05T03:57:42.000Z,4.31
2023-02-05T03:58:39.000Z,4.25
2023-02-05T03:59:35.000Z,4.25
2023-02-05T04:00:33.000Z,4.25
2023-02-05T04:01:32.000Z,4.25
2023-02-05T04:02:32.000Z,4.19
2023-02-05T04:03:32.000Z,4.19
2023-02-05T04:04:32.000Z,4.19
2023-02-05T04:05:32.000Z,4.19
2023-02-05T04:06:32.000Z,4.25
2023-02-05T04:07:32.000Z,4.19
2023-02-05T04:08:32.000Z,4.19
2023-02-05T04:09:32.000Z,4.25
2023-02-05T04:10:32.000Z,4.19
2023-02-05T04:11:32.000Z,4.19
2023-02-05T04:12:32.000Z,4.25
2023-02-05T04:13:32.000Z,4.19
2023-02-05T04:14:32.000Z,4.19
2023-02-05T04:15:32.000Z,4.25
2023-02-05T04:16:32.000Z,4.19
2023-02-05T04:17:33.000Z,4.19
2023-02-05T04:18:32.000Z,4.19
2023-02-05T04:19:33.000Z,4.19
2023-02-05T04:20:32.000Z,4.19
2023-02-05T04:21:32.000Z,4.19
2023-02-05T04:22:32.000Z,4.19
2023-02-05T04:23:32.000Z,4.25
2023-02-05T04:24:32.000Z,4.19
2023-02-05T04:25:35.000Z,4.19
2023-02-05T04:26:32.000Z,4.19
2023-02-05T04:27:32.000Z,4.25
2023-02-05T04:28:33.000Z,4.25
2023-02-05T04:29:33.000Z,4.25
2023-02-05T04:30:32.000Z,4.25
2023-02-05T04:31:32.000Z,4.19
2023-02-05T04:32:33.000Z,4.19
2023-02-05T04:33:33.000Z,4.19
2023-02-05T04:34:33.000Z,4.19
2023-02-05T04:35:32.000Z,4.19
2023-02-05T04:36:32.000Z,4.19
2023-02-05T04:37:32.000Z,4.19
2023-02-05T04:38:33.000Z,4.19
2023-02-05T04:39:32.000Z,4.12
2023-02-05T04:40:32.000Z,4.12
2023-02-05T04:41:33.000Z,4.12
2023-02-05T04:42:32.000Z,4.19
2023-02-05T04:43:33.000Z,4.12
2023-02-05T04:44:32.000Z,4.19
2023-02-05T04:45:34.000Z,4.19
2023-02-05T04:46:32.000Z,4.12
2023-02-05T04:47:33.000Z,4.19
2023-02-05T04:48:33.000Z,4.19
2023-02-05T04:49:33.000Z,4.19
2023-02-05T04:50:32.000Z,4.12
2023-02-05T04:51:32.000Z,4.12
2023-02-05T04:52:32.000Z,4.12
2023-02-05T04:53:32.000Z,4.12
2023-02-05T04:54:35.000Z,4.19
2023-02-05T04:55:32.000Z,4.12
2023-02-05T04:56:32.000Z,4.12
2023-02-05T04:57:32.000Z,4.12
2023-02-05T04:58:33.000Z,4.12
2023-02-05T04:59:32.000Z,4.12
2023-02-05T05:00:32.000Z,4.12
2023-02-05T05:01:32.000Z,4.12
2023-02-05T05:02:33.000Z,4.12
2023-02-05T05:03:32.000Z,4.12
2023-02-05T05:04:32.000Z,4.12
2023-02-05T05:05:33.000Z,4.12
2023-02-05T05:06:32.000Z,4.19
2023-02-05T05:07:32.000Z,4.12
2023-02-05T05:08:32.000Z,4.12
2023-02-05T05:09:32.000Z,4.12
2023-02-05T05:10:32.000Z,4.12
2023-02-05T05:11:32.000Z,4.12
2023-02-05T05:12:34.000Z,4.12
2023-02-05T05:13:34.000Z,4.19
2023-02-05T05:14:32.000Z,4.12
2023-02-05T05:15:32.000Z,4.19
2023-02-05T05:16:32.000Z,4.12
2023-02-05T05:17:33.000Z,4.12
2023-02-05T05:18:33.000Z,4.12
2023-02-05T05:19:32.000Z,4.12
2023-02-05T05:20:32.000Z,4.06
2023-02-05T05:21:32.000Z,4.12
2023-02-05T05:22:32.000Z,4.06
2023-02-05T05:23:33.000Z,4.12
2023-02-05T05:24:32.000Z,4.12
2023-02-05T05:25:32.000Z,4.06
2023-02-05T05:26:32.000Z,4.06
2023-02-05T05:27:32.000Z,4.06
2023-02-05T05:28:33.000Z,4.12
2023-02-05T05:29:33.000Z,4.12
2023-02-05T05:30:32.000Z,4.12
2023-02-05T05:31:32.000Z,4.06
2023-02-05T05:32:32.000Z,4.12
2023-02-05T05:33:32.000Z,4.12
2023-02-05T05:34:32.000Z,4.12
2023-02-05T05:35:33.000Z,4.12
2023-02-05T05:36:32.000Z,4.12
2023-02-05T05:37:32.000Z,4.06
2023-02-05T05:38:33.000Z,4.06
2023-02-05T05:39:37.000Z,4.06
2023-02-05T05:40:38.000Z,4.12
2023-02-05T05:41:37.000Z,4.06
2023-02-05T05:42:37.000Z,4.06
2023-02-05T05:43:37.000Z,4.06
2023-02-05T05:44:32.000Z,4.06
2023-02-05T05:45:32.000Z,4.12
2023-02-05T05:46:33.000Z,4.06
2023-02-05T05:47:32.000Z,4.12
2023-02-05T05:48:33.000Z,4.12
2023-02-05T05:49:32.000Z,4.12
2023-02-05T05:50:32.000Z,4.12
2023-02-05T05:51:32.000Z,4.19
2023-02-05T05:52:33.000Z,4.12
2023-02-05T05:53:32.000Z,4.19
2023-02-05T05:54:32.000Z,4.19
2023-02-05T05:55:32.000Z,4.19
2023-02-05T05:56:34.000Z,4.19
2023-02-05T05:57:32.000Z,4.19
2023-02-05T05:58:33.000Z,4.19
2023-02-05T05:59:33.000Z,4.19
2023-02-05T06:00:33.000Z,4.19
2023-02-05T06:01:32.000Z,4.19
2023-02-05T06:02:38.000Z,4.19
2023-02-05T06:03:33.000Z,4.19
2023-02-05T06:04:32.000Z,4.19
2023-02-05T06:05:32.000Z,4.12
2023-02-05T06:06:33.000Z,4.19
2023-02-05T06:07:32.000Z,4.12
2023-02-05T06:08:33.000Z,4.12
2023-02-05T06:09:32.000Z,4.12
2023-02-05T06:10:32.000Z,4.12
2023-02-05T06:11:32.000Z,4.12
2023-02-05T06:12:32.000Z,4.12
2023-02-05T06:13:33.000Z,4.06
2023-02-05T06:14:32.000Z,4.06
2023-02-05T06:15:33.000Z,4.06
2023-02-05T06:16:32.000Z,4.06
2023-02-05T06:17:33.000Z,4.12
2023-02-05T06:18:33.000Z,4.06
2023-02-05T06:19:33.000Z,4.00
2023-02-05T06:20:33.000Z,4.00
2023-02-05T06:21:33.000Z,4.06
2023-02-05T06:22:33.000Z,4.00
2023-02-05T06:23:33.000Z,4.00
2023-02-05T06:24:33.000Z,4.06
2023-02-05T06:25:33.000Z,4.06
2023-02-05T06:26:32.000Z,4.00
2023-02-05T06:27:33.000Z,4.06
2023-02-05T06:28:33.000Z,4.00
2023-02-05T06:29:33.000Z,4.06
2023-02-05T06:30:33.000Z,4.06
2023-02-05T06:31:33.000Z,4.00
2023-02-05T06:32:32.000Z,4.00
2023-02-05T06:33:33.000Z,4.06
2023-02-05T06:34:33.000Z,4.06
2023-02-05T06:35:33.000Z,4.06
2023-02-05T06:36:33.000Z,4.06
2023-02-05T06:37:33.000Z,4.06
2023-02-05T06:38:33.000Z,4.06
2023-02-05T06:39:33.000Z,4.06
2023-02-05T06:40:33.000Z,4.06
2023-02-05T06:41:33.000Z,4.06
2023-02-05T06:42:32.000Z,4.06
2023-02-05T06:43:33.000Z,4.06
2023-02-05T06:44:33.000Z,4.06
2023-02-05T06:45:32.000Z,4.06
2023-02-05T06:46:32.000Z,4.06
2023-02-05T06:47:32.000Z,4.06
2023-02-05T06:48:32.000Z,4.06
2023-02-05T06:49:32.000Z,4.06
2023-02-05T06:50:32.000Z,4.06
2023-02-05T06:51:32.000Z,4.06
2023-02-05T06:52:32.000Z,4.06
2023-02-05T06:53:32.000Z,4.06
2023-02-05T06:54:33.000Z,4.06
2023-02-05T06:55:32.000Z,4.06
2023-02-05T06:56:32.000Z,4.06
2023-02-05T06:57:32.000Z,4.06
2023-02-05T06:58:32.000Z,4.00
2023-02-05T06:59:32.000Z,4.00
2023-02-05T07:00:33.000Z,4.06
2023-02-05T07:01:33.000Z,4.00
2023-02-05T07:02:32.000Z,4.00
2023-02-05T07:03:32.000Z,4.00
2023-02-05T07:04:33.000Z,4.00
2023-02-05T07:05:33.000Z,4.00
2023-02-05T07:06:32.000Z,4.00
2023-02-05T07:07:33.000Z,3.94
2023-02-05T07:08:33.000Z,4.00
2023-02-05T07:09:33.000Z,4.00
2023-02-05T07:10:32.000Z,4.00
2023-02-05T07:11:33.000Z,4.00
2023-02-05T07:12:32.000Z,4.00
2023-02-05T07:13:32.000Z,3.94
2023-02-05T07:14:36.000Z,3.94
2023-02-05T07:15:36.000Z,3.94
2023-02-05T07:16:32.000Z,4.00
2023-02-05T07:17:33.000Z,3.94
2023-02-05T07:18:33.000Z,3.94
2023-02-05T07:19:33.000Z,3.94
2023-02-05T07:20:33.000Z,3.94
2023-02-05T07:21:33.000Z,3.94
2023-02-05T07:22:33.000Z,3.88
2023-02-05T07:23:33.000Z,3.88
2023-02-05T07:24:33.000Z,3.88
2023-02-05T07:25:36.000Z,3.88
2023-02-05T07:26:34.000Z,3.94
2023-02-05T07:27:33.000Z,3.88
2023-02-05T07:28:33.000Z,3.88
2023-02-05T07:29:33.000Z,3.88
2023-02-05T07:30:36.000Z,3.88
2023-02-05T07:31:33.000Z,3.88
2023-02-05T07:32:32.000Z,3.88
2023-02-05T07:33:33.000Z,3.88
2023-02-05T07:34:33.000Z,3.88
2023-02-05T07:35:36.000Z,3.94
2023-02-05T07:36:33.000Z,3.88
2023-02-05T07:37:32.000Z,3.94
2023-02-05T07:38:34.000Z,3.94
2023-02-05T07:39:32.000Z,3.88
2023-02-05T07:40:33.000Z,3.88
2023-02-05T07:41:33.000Z,3.88
2023-02-05T07:42:33.000Z,3.88
2023-02-05T07:43:34.000Z,3.88
2023-02-05T07:44:33.000Z,3.94
2023-02-05T07:45:33.000Z,3.94
2023-02-05T07:46:33.000Z,4.00
2023-02-05T07:47:32.000Z,3.94
2023-02-05T07:48:33.000Z,4.00
2023-02-05T07:49:32.000Z,4.00
2023-02-05T07:50:32.000Z,4.00
2023-02-05T07:51:33.000Z,4.06
2023-02-05T07:52:33.000Z,4.06
2023-02-05T07:53:32.000Z,4.06
2023-02-05T07:54:32.000Z,4.06
2023-02-05T07:55:33.000Z,4.06
2023-02-05T07:56:33.000Z,4.06
2023-02-05T07:57:33.000Z,4.12
2023-02-05T07:58:32.000Z,4.06
2023-02-05T07:59:33.000Z,4.12
2023-02-05T08:00:33.000Z,4.12
2023-02-05T08:01:33.000Z,4.12
2023-02-05T08:02:32.000Z,4.12
2023-02-05T08:03:34.000Z,4.12
2023-02-05T08:04:32.000Z,4.06
2023-02-05T08:05:33.000Z,4.12
2023-02-05T08:06:33.000Z,4.12
2023-02-05T08:07:32.000Z,4.12
2023-02-05T08:08:33.000Z,4.06
2023-02-05T08:09:34.000Z,4.06
2023-02-05T08:10:33.000Z,4.06
2023-02-05T08:11:32.000Z,4.00
2023-02-05T08:12:32.000Z,4.06
2023-02-05T08:13:33.000Z,4.06
2023-02-05T08:14:34.000Z,4.06
2023-02-05T08:15:32.000Z,4.06
2023-02-05T08:16:33.000Z,4.06
2023-02-05T08:17:33.000Z,4.06
2023-02-05T08:18:32.000Z,4.06
2023-02-05T08:19:33.000Z,4.06
2023-02-05T08:20:32.000Z,4.06
2023-02-05T08:21:32.000Z,4.12
2023-02-05T08:22:36.000Z,4.12
2023-02-05T08:23:33.000Z,4.06
2023-02-05T08:24:32.000Z,4.06
2023-02-05T08:25:32.000Z,4.06
2023-02-05T08:26:32.000Z,4.06
2023-02-05T08:27:33.000Z,4.06
2023-02-05T08:28:33.000Z,4.12
2023-02-05T08:29:32.000Z,4.06
2023-02-05T08:30:32.000Z,4.12
2023-02-05T08:31:33.000Z,4.06
2023-02-05T08:32:32.000Z,4.06
2023-02-05T08:33:32.000Z,4.12
2023-02-05T08:34:33.000Z,4.12
2023-02-05T08:35:32.000Z,4.12
2023-02-05T08:36:32.000Z,4.12
2023-02-05T08:37:32.000Z,4.12
2023-02-05T08:38:32.000Z,4.06
2023-02-05T08:39:32.000Z,4.19
2023-02-05T08:40:34.000Z,4.19
2023-02-05T08:41:33.000Z,4.19
2023-02-05T08:42:33.000Z,4.19
2023-02-05T08:43:32.000Z,4.19
2023-02-05T08:44:33.000Z,4.19
2023-02-05T08:45:33.000Z,4.19
2023-02-05T08:46:33.000Z,4.19
2023-02-05T08:47:33.000Z,4.19
2023-02-05T08:48:32.000Z,4.19
2023-02-05T08:49:32.000Z,4.19
2023-02-05T08:50:32.000Z,4.19
2023-02-05T08:51:34.000Z,4.19
2023-02-05T08:52:32.000Z,4.25
2023-02-05T08:53:32.000Z,4.19
2023-02-05T08:54:32.000Z,4.25
2023-02-05T08:55:32.000Z,4.25
2023-02-05T08:56:32.000Z,4.25
2023-02-05T08:57:33.000Z,4.25
2023-02-05T08:58:33.000Z,4.25
2023-02-05T08:59:33.000Z,4.25
2023-02-05T09:00:36.000Z,4.25
2023-02-05T09:01:33.000Z,4.25
2023-02-05T09:02:32.000Z,4.25
2023-02-05T09:03:33.000Z,4.25
2023-02-05T09:04:32.000Z,4.31
2023-02-05T09:05:32.000Z,4.25
2023-02-05T09:06:32.000Z,4.31
2023-02-05T09:07:32.000Z,4.31
2023-02-05T09:08:33.000Z,4.31
2023-02-05T09:09:34.000Z,4.31
2023-02-05T09:10:33.000Z,4.38
2023-02-05T09:11:33.000Z,4.31
2023-02-05T09:12:32.000Z,4.31
2023-02-05T09:13:33.000Z,4.31
2023-02-05T09:14:37.000Z,4.31
2023-02-05T09:15:32.000Z,4.31
2023-02-05T09:16:32.000Z,4.38
2023-02-05T09:17:32.000Z,4.31
2023-02-05T09:18:31.000Z,4.38
2023-02-05T09:19:33.000Z,4.38
2023-02-05T09:20:33.000Z,4.31
2023-02-05T09:21:32.000Z,4.38
2023-02-05T09:22:31.000Z,4.38
2023-02-05T09:23:32.000Z,4.38
2023-02-05T09:24:34.000Z,4.44
2023-02-05T09:25:32.000Z,4.44
2023-02-05T09:26:32.000Z,4.38
2023-02-05T09:27:32.000Z,4.44
2023-02-05T09:28:48.000Z,4.44
2023-02-05T09:29:40.000Z,4.44
2023-02-05T09:30:40.000Z,4.44
2023-02-05T09:31:42.000Z,4.50
2023-02-05T09:32:37.000Z,4.50
2023-02-05T09:33:41.000Z,4.50
2023-02-05T09:34:32.000Z,4.50
2023-02-05T09:35:33.000Z,4.56
2023-02-05T09:36:32.000Z,4.56
2023-02-05T09:37:31.000Z,4.56
2023-02-05T09:38:32.000Z,4.56
2023-02-05T09:39:31.000Z,4.62
2023-02-05T09:40:38.000Z,4.62
2023-02-05T09:41:46.000Z,4.56
2023-02-05T09:42:56.000Z,4.62
2023-02-05T09:43:43.000Z,4.62
2023-02-05T09:44:49.000Z,4.62
2023-02-05T09:45:42.000Z,4.69
2023-02-05T09:46:42.000Z,4.62
2023-02-05T09:47:37.000Z,4.69
2023-02-05T09:48:42.000Z,4.69
2023-02-05T09:49:40.000Z,4.69
2023-02-05T09:50:32.000Z,4.62
2023-02-05T09:51:39.000Z,4.62
2023-02-05T09:52:36.000Z,4.69
2023-02-05T09:53:38.000Z,4.69
2023-02-05T09:54:41.000Z,4.69
2023-02-05T09:55:35.000Z,4.69
2023-02-05T09:56:32.000Z,4.69
2023-02-05T09:57:38.000Z,4.75
2023-02-05T09:58:42.000Z,4.75
2023-02-05T09:59:32.000Z,4.75
2023-02-05T10:00:43.000Z,4.81
2023-02-05T10:01:42.000Z,4.81
2023-02-05T10:02:43.000Z,4.81
2023-02-05T10:03:42.000Z,4.88
2023-02-05T10:04:32.000Z,4.88
2023-02-05T10:05:45.000Z,4.88
2023-02-05T10:06:45.000Z,4.88
2023-02-05T10:07:49.000Z,4.88
2023-02-05T10:08:42.000Z,4.88
2023-02-05T10:09:47.000Z,4.88
2023-02-05T10:10:44.000Z,4.94
2023-02-05T10:11:44.000Z,4.94
2023-02-05T10:12:42.000Z,5.00
2023-02-05T10:13:39.000Z,5.00
2023-02-05T10:14:58.000Z,5.00
2023-02-05T10:15:43.000Z,5.00
2023-02-05T10:16:54.000Z,4.94
2023-02-05T10:17:42.000Z,5.00
2023-02-05T10:18:42.000Z,5.06
2023-02-05T10:19:44.000Z,5.06
2023-02-05T10:20:49.000Z,5.06
2023-02-05T10:21:55.000Z,5.06
2023-02-05T10:23:01.000Z,5.00
2023-02-05T10:23:53.000Z,5.00
2023-02-05T10:24:58.000Z,5.00
2023-02-05T10:25:43.000Z,5.00
2023-02-05T10:26:47.000Z,5.06
2023-02-05T10:27:52.000Z,5.06
2023-02-05T10:28:42.000Z,5.06
2023-02-05T10:30:01.000Z,5.06
2023-02-05T10:30:57.000Z,5.06
2023-02-05T10:31:55.000Z,5.06
2023-02-05T10:32:43.000Z,5.06
2023-02-05T10:33:52.000Z,5.06
2023-02-05T10:34:42.000Z,5.06
2023-02-05T10:35:53.000Z,5.06
2023-02-05T10:36:33.000Z,5.12
2023-02-05T10:37:40.000Z,5.12
2023-02-05T10:38:38.000Z,5.06
2023-02-05T10:39:32.000Z,5.12
2023-02-05T10:40:40.000Z,5.06
2023-02-05T10:41:43.000Z,5.06
2023-02-05T10:42:38.000Z,5.12
2023-02-05T10:43:41.000Z,5.12
2023-02-05T10:44:40.000Z,5.06
2023-02-05T10:45:32.000Z,5.12
2023-02-05T10:46:35.000Z,5.12
2023-02-05T10:47:42.000Z,5.12
2023-02-05T10:48:53.000Z,5.12
2023-02-05T10:49:52.000Z,5.12
2023-02-05T10:50:42.000Z,5.12
2023-02-05T10:51:39.000Z,5.12
2023-02-05T10:52:32.000Z,5.06
2023-02-05T10:53:33.000Z,5.12
2023-02-05T10:54:32.000Z,5.12
2023-02-05T10:55:32.000Z,5.06
2023-02-05T10:56:32.000Z,5.06
2023-02-05T10:57:34.000Z,5.06
2023-02-05T10:58:42.000Z,5.06
2023-02-05T10:59:40.000Z,5.06
2023-02-05T11:00:32.000Z,5.06
2023-02-05T11:01:36.000Z,5.00
2023-02-05T11:02:41.000Z,5.06
2023-02-05T11:03:34.000Z,5.06
2023-02-05T11:04:43.000Z,5.06
2023-02-05T11:05:39.000Z,5.12
2023-02-05T11:06:40.000Z,5.06
2023-02-05T11:07:40.000Z,5.06
2023-02-05T11:08:39.000Z,5.12
2023-02-05T11:09:33.000Z,5.06
2023-02-05T11:10:33.000Z,5.06
2023-02-05T11:11:32.000Z,5.12
2023-02-05T11:12:32.000Z,5.06
2023-02-05T11:13:40.000Z,5.06
2023-02-05T11:14:36.000Z,5.06
2023-02-05T11:15:32.000Z,5.06
2023-02-05T11:16:39.000Z,5.00
2023-02-05T11:17:36.000Z,5.00
2023-02-05T11:18:39.000Z,5.00
2023-02-05T11:19:33.000Z,5.00
2023-02-05T11:20:35.000Z,5.06
2023-02-05T11:21:42.000Z,5.06
2023-02-05T11:22:36.000Z,5.06
2023-02-05T11:23:38.000Z,5.12
2023-02-05T11:24:35.000Z,5.12
2023-02-05T11:25:32.000Z,5.19
2023-02-05T11:26:31.000Z,5.19
2023-02-05T11:27:33.000Z,5.19
2023-02-05T11:28:36.000Z,5.12
2023-02-05T11:29:31.000Z,5.12
2023-02-05T11:30:35.000Z,5.12
2023-02-05T11:31:32.000Z,5.12
2023-02-05T11:32:36.000Z,5.12
2023-02-05T11:33:31.000Z,5.12
2023-02-05T11:34:31.000Z,5.12
2023-02-05T11:35:31.000Z,5.12
2023-02-05T11:36:34.000Z,5.12
2023-02-05T11:37:36.000Z,5.12
2023-02-05T11:38:42.000Z,5.19
2023-02-05T11:39:37.000Z,5.12
2023-02-05T11:40:33.000Z,5.12
2023-02-05T11:41:52.000Z,5.19
2023-02-05T11:42:31.000Z,5.12
2023-02-05T11:43:43.000Z,5.12
2023-02-05T11:44:45.000Z,5.19
2023-02-05T11:45:35.000Z,5.12
2023-02-05T11:46:40.000Z,5.19
2023-02-05T11:47:34.000Z,5.19
2023-02-05T11:48:39.000Z,5.19
2023-02-05T11:49:38.000Z,5.19
2023-02-05T11:50:32.000Z,5.19
2023-02-05T11:51:43.000Z,5.19
2023-02-05T11:52:35.000Z,5.25
2023-02-05T11:53:33.000Z,5.25
2023-02-05T11:54:32.000Z,5.19
2023-02-05T11:55:33.000Z,5.19
2023-02-05T11:56:31.000Z,5.12
2023-02-05T11:57:36.000Z,5.12
2023-02-05T11:58:33.000Z,5.12
2023-02-05T11:59:33.000Z,5.19
2023-02-05T12:00:32.000Z,5.19
2023-02-05T12:01:33.000Z,5.12
2023-02-05T12:02:34.000Z,5.19
2023-02-05T12:03:33.000Z,5.06
2023-02-05T12:04:44.000Z,5.06
2023-02-05T12:05:38.000Z,5.06
2023-02-05T12:06:38.000Z,5.00
2023-02-05T12:07:45.000Z,5.00
2023-02-05T12:08:39.000Z,5.00
2023-02-05T12:09:31.000Z,5.00
2023-02-05T12:10:42.000Z,5.00
2023-02-05T12:11:57.000Z,5.00
2023-02-05T12:12:41.000Z,5.00
2023-02-05T12:13:43.000Z,5.00
2023-02-05T12:14:42.000Z,5.06
2023-02-05T12:15:43.000Z,5.12
2023-02-05T12:16:42.000Z,5.12
2023-02-05T12:17:52.000Z,5.12
2023-02-05T12:18:48.000Z,5.12
2023-02-05T12:19:42.000Z,5.19
2023-02-05T12:20:42.000Z,5.19
2023-02-05T12:21:52.000Z,5.19
2023-02-05T12:22:53.000Z,5.25
2023-02-05T12:23:51.000Z,5.25
2023-02-05T12:24:44.000Z,5.25
2023-02-05T12:25:49.000Z,5.31
2023-02-05T12:26:43.000Z,5.31
2023-02-05T12:27:55.000Z,5.31
2023-02-05T12:28:42.000Z,5.31
2023-02-05T12:29:42.000Z,5.31
2023-02-05T12:30:42.000Z,5.31
2023-02-05T12:31:54.000Z,5.38
2023-02-05T12:32:54.000Z,5.38
2023-02-05T12:33:44.000Z,5.38
2023-02-05T12:34:46.000Z,5.38
2023-02-05T12:35:47.000Z,5.38
2023-02-05T12:36:42.000Z,5.38
2023-02-05T12:37:52.000Z,5.38
2023-02-05T12:38:59.000Z,5.38
2023-02-05T12:39:42.000Z,5.44
2023-02-05T12:40:47.000Z,5.38
2023-02-05T12:41:42.000Z,5.44
2023-02-05T12:42:35.000Z,5.38
2023-02-05T12:43:36.000Z,5.44
2023-02-05T12:44:52.000Z,5.38
2023-02-05T12:45:42.000Z,5.38
2023-02-05T12:46:43.000Z,5.38
2023-02-05T12:47:48.000Z,5.38
2023-02-05T12:48:47.000Z,5.38
2023-02-05T12:49:51.000Z,5.38
2023-02-05T12:50:50.000Z,5.38
2023-02-05T12:51:50.000Z,5.38
2023-02-05T12:52:47.000Z,5.38
2023-02-05T12:53:41.000Z,5.38
2023-02-05T12:54:54.000Z,5.38
2023-02-05T12:55:48.000Z,5.44
2023-02-05T12:56:43.000Z,5.38
2023-02-05T12:57:55.000Z,5.38
2023-02-05T12:58:46.000Z,5.44
2023-02-05T12:59:44.000Z,5.38
2023-02-05T13:00:48.000Z,5.38
2023-02-05T13:01:42.000Z,5.44
2023-02-05T13:02:41.000Z,5.38
2023-02-05T13:03:38.000Z,5.44
2023-02-05T13:04:39.000Z,5.44
2023-02-05T13:05:37.000Z,5.44
2023-02-05T13:06:37.000Z,5.44
2023-02-05T13:07:36.000Z,5.44
2023-02-05T13:08:39.000Z,5.38
2023-02-05T13:09:55.000Z,5.44
2023-02-05T13:10:52.000Z,5.44
2023-02-05T13:11:52.000Z,5.44
2023-02-05T13:12:40.000Z,5.44
2023-02-05T13:13:42.000Z,5.44
2023-02-05T13:14:41.000Z,5.44
2023-02-05T13:15:40.000Z,5.44
2023-02-05T13:16:42.000Z,5.44
2023-02-05T13:17:38.000Z,5.44
2023-02-05T13:18:36.000Z,5.44